N419YX KSAN-KLAX
Flight info
| Callsign | N419YX |
|---|---|
| Flight time | N/A |
| Altitude | 10000 |
| Route | CWARD2 SLI |
| Aircraft | E75L/M-SDE3GILORVW/S |
Departure
| Time | 2026-05-07 21:57 |
|---|---|
| Airport | San Diego International Airport (KSAN) |
Arrival
| Time | N/A |
|---|---|
| Airport | Los Angeles International Airport (KLAX) |
| Time | Latitude | Longitude | Altitude | Speed | Heading |
|---|---|---|---|---|---|
| 2026-05-07 21:27 | 32.73325 | -117.19648 | 25 ft | 0 kts | 171° |
| 2026-05-07 21:39 | 32.73340 | -117.19643 | 25 ft | 2 kts | 210° |
| 2026-05-07 21:39 | 32.73356 | -117.19641 | 29 ft | 3 kts | 128° |
| 2026-05-07 21:40 | 32.73361 | -117.19651 | 26 ft | 0 kts | 83° |
| 2026-05-07 21:41 | 32.73362 | -117.19651 | 26 ft | 0 kts | 82° |
| 2026-05-07 21:42 | 32.73325 | -117.19648 | 25 ft | 0 kts | 171° |
| 2026-05-07 21:46 | 32.73332 | -117.19649 | 28 ft | 3 kts | 137° |
| 2026-05-07 21:46 | 32.73340 | -117.19663 | 26 ft | 0 kts | 72° |
| 2026-05-07 21:50 | 32.73358 | -117.19646 | 25 ft | 7 kts | 42° |
| 2026-05-07 21:50 | 32.73387 | -117.19577 | 27 ft | 11 kts | 84° |
| 2026-05-07 21:51 | 32.73378 | -117.19480 | 28 ft | 13 kts | 105° |
| 2026-05-07 21:51 | 32.73345 | -117.19349 | 27 ft | 21 kts | 106° |
| 2026-05-07 21:51 | 32.73299 | -117.19158 | 28 ft | 27 kts | 106° |
| 2026-05-07 21:51 | 32.73249 | -117.18951 | 27 ft | 26 kts | 105° |
| 2026-05-07 21:52 | 32.73204 | -117.18761 | 32 ft | 23 kts | 107° |
| 2026-05-07 21:52 | 32.73161 | -117.18587 | 27 ft | 23 kts | 106° |
| 2026-05-07 21:52 | 32.73115 | -117.18400 | 29 ft | 24 kts | 106° |
| 2026-05-07 21:52 | 32.73067 | -117.18206 | 24 ft | 25 kts | 106° |
| 2026-05-07 21:53 | 32.73017 | -117.17999 | 22 ft | 26 kts | 107° |
| 2026-05-07 21:53 | 32.72963 | -117.17788 | 20 ft | 26 kts | 108° |
| 2026-05-07 21:53 | 32.72955 | -117.17667 | 22 ft | 6 kts | 70° |
| 2026-05-07 21:53 | 32.72955 | -117.17666 | 22 ft | 0 kts | 70° |
| 2026-05-07 21:54 | 32.72955 | -117.17665 | 22 ft | 1 kts | 70° |
| 2026-05-07 21:54 | 32.72985 | -117.17591 | 26 ft | 5 kts | 46° |
| 2026-05-07 21:55 | 32.73032 | -117.17625 | 24 ft | 10 kts | 288° |
| 2026-05-07 21:55 | 32.73035 | -117.17639 | 24 ft | 1 kts | 282° |
| 2026-05-07 21:55 | 32.73037 | -117.17651 | 23 ft | 0 kts | 282° |
| 2026-05-07 21:55 | 32.73038 | -117.17658 | 23 ft | 0 kts | 282° |
| 2026-05-07 21:56 | 32.73040 | -117.17667 | 23 ft | 5 kts | 282° |
| 2026-05-07 21:56 | 32.73094 | -117.17894 | 23 ft | 79 kts | 286° |
| 2026-05-07 21:56 | 32.73363 | -117.18964 | 85 ft | 186 kts | 288° |
| 2026-05-07 21:57 | 32.73793 | -117.20668 | 947 ft | 245 kts | 286° |
| 2026-05-07 21:57 | 32.74333 | -117.22772 | 2176 ft | 291 kts | 287° |
| 2026-05-07 21:57 | 32.74986 | -117.25277 | 3246 ft | 342 kts | 288° |
| 2026-05-07 21:57 | 32.75769 | -117.28122 | 4423 ft | 381 kts | 289° |
| 2026-05-07 21:58 | 32.76589 | -117.31082 | 5601 ft | 356 kts | 289° |
| 2026-05-07 21:58 | 32.77444 | -117.33646 | 6573 ft | 316 kts | 299° |
| 2026-05-07 21:58 | 32.78644 | -117.35689 | 7261 ft | 291 kts | 313° |
| 2026-05-07 21:58 | 32.80095 | -117.37262 | 7801 ft | 275 kts | 322° |
| 2026-05-07 21:59 | 32.81563 | -117.38650 | 8209 ft | 266 kts | 323° |
| 2026-05-07 21:59 | 32.83002 | -117.39997 | 8581 ft | 260 kts | 323° |
| 2026-05-07 21:59 | 32.84452 | -117.41253 | 8895 ft | 258 kts | 330° |
| 2026-05-07 21:59 | 32.85974 | -117.42409 | 9480 ft | 262 kts | 328° |
| 2026-05-07 22:00 | 32.87494 | -117.43645 | 9801 ft | 267 kts | 327° |
| 2026-05-07 22:00 | 32.88996 | -117.44900 | 9934 ft | 268 kts | 327° |
| 2026-05-07 22:00 | 32.90513 | -117.46182 | 9999 ft | 268 kts | 326° |
| 2026-05-07 22:00 | 32.92029 | -117.47471 | 10032 ft | 267 kts | 326° |
| 2026-05-07 22:01 | 32.93543 | -117.48759 | 10047 ft | 268 kts | 327° |
| 2026-05-07 22:01 | 32.95057 | -117.50055 | 10054 ft | 267 kts | 326° |
| 2026-05-07 22:01 | 32.96562 | -117.51351 | 10058 ft | 267 kts | 326° |
| 2026-05-07 22:01 | 32.98071 | -117.52648 | 10059 ft | 267 kts | 326° |
| 2026-05-07 22:02 | 32.99575 | -117.53942 | 10061 ft | 267 kts | 326° |
| 2026-05-07 22:02 | 33.01074 | -117.55244 | 10061 ft | 266 kts | 326° |
| 2026-05-07 22:02 | 33.02574 | -117.56542 | 10058 ft | 267 kts | 326° |
| 2026-05-07 22:02 | 33.04076 | -117.57838 | 10054 ft | 266 kts | 326° |
| 2026-05-07 22:03 | 33.05576 | -117.59133 | 10051 ft | 266 kts | 326° |
| 2026-05-07 22:03 | 33.07075 | -117.60430 | 10051 ft | 266 kts | 326° |
| 2026-05-07 22:03 | 33.08576 | -117.61726 | 10052 ft | 266 kts | 326° |
| 2026-05-07 22:03 | 33.10074 | -117.63021 | 10051 ft | 266 kts | 326° |
| 2026-05-07 22:04 | 33.11569 | -117.64316 | 10049 ft | 266 kts | 326° |
| 2026-05-07 22:04 | 33.13065 | -117.65612 | 10050 ft | 266 kts | 326° |
| 2026-05-07 22:04 | 33.14564 | -117.66909 | 10051 ft | 266 kts | 326° |
| 2026-05-07 22:04 | 33.16060 | -117.68206 | 10051 ft | 266 kts | 326° |
| 2026-05-07 22:05 | 33.17557 | -117.69507 | 10049 ft | 266 kts | 326° |
| 2026-05-07 22:05 | 33.19055 | -117.70806 | 10050 ft | 266 kts | 326° |